sensor_id;sensor_type;location;lat;lon;timestamp;noise_LAeq;noise_LA_min;noise_LA_max;noise_LA01;noise_LA95
4048;Laerm;2038;51.728;6.674;2024-03-06T00:02:08;35.99;26.91;39.21;;
4048;Laerm;2038;51.728;6.674;2024-03-06T00:04:35;35.98;23.90;39.81;;
4048;Laerm;2038;51.728;6.674;2024-03-06T00:07:01;35.97;26.91;39.70;;
4048;Laerm;2038;51.728;6.674;2024-03-06T00:09:28;35.97;28.67;39.21;;
4048;Laerm;2038;51.728;6.674;2024-03-06T00:11:55;36.02;23.90;39.21;;
4048;Laerm;2038;51.728;6.674;2024-03-06T00:14:22;36.05;26.91;39.34;;
4048;Laerm;2038;51.728;6.674;2024-03-06T00:16:50;36.02;23.90;39.58;;
4048;Laerm;2038;51.728;6.674;2024-03-06T00:19:18;36.03;28.67;39.58;;
4048;Laerm;2038;51.728;6.674;2024-03-06T00:21:44;36.01;23.90;39.46;;
4048;Laerm;2038;51.728;6.674;2024-03-06T00:24:15;36.06;28.67;39.46;;
4048;Laerm;2038;51.728;6.674;2024-03-06T00:26:43;35.99;5.00;39.34;;
4048;Laerm;2038;51.728;6.674;2024-03-06T00:29:11;36.03;23.90;39.21;;
4048;Laerm;2038;51.728;6.674;2024-03-06T00:31:43;36.00;23.90;39.58;;
4048;Laerm;2038;51.728;6.674;2024-03-06T00:34:10;36.01;26.56;39.58;;
4048;Laerm;2038;51.728;6.674;2024-03-06T00:36:40;36.05;5.00;39.58;;
4048;Laerm;2038;51.728;6.674;2024-03-06T00:39:06;36.01;26.91;39.46;;
4048;Laerm;2038;51.728;6.674;2024-03-06T00:41:34;36.04;5.00;39.21;;
4048;Laerm;2038;51.728;6.674;2024-03-06T00:44:01;36.05;23.90;39.21;;
4048;Laerm;2038;51.728;6.674;2024-03-06T00:46:28;36.01;26.91;39.58;;
4048;Laerm;2038;51.728;6.674;2024-03-06T00:48:54;36.01;26.91;39.46;;
4048;Laerm;2038;51.728;6.674;2024-03-06T00:51:21;36.00;26.91;39.21;;
4048;Laerm;2038;51.728;6.674;2024-03-06T00:53:47;36.04;23.90;39.34;;
4048;Laerm;2038;51.728;6.674;2024-03-06T00:56:13;36.00;26.91;39.21;;
4048;Laerm;2038;51.728;6.674;2024-03-06T00:58:39;36.05;26.91;39.34;;
4048;Laerm;2038;51.728;6.674;2024-03-06T01:01:06;36.03;23.90;39.70;;
4048;Laerm;2038;51.728;6.674;2024-03-06T01:03:32;36.02;26.91;39.92;;
4048;Laerm;2038;51.728;6.674;2024-03-06T01:05:58;36.06;28.67;39.21;;
4048;Laerm;2038;51.728;6.674;2024-03-06T01:08:24;36.03;26.91;39.46;;
4048;Laerm;2038;51.728;6.674;2024-03-06T01:10:51;36.04;23.90;39.23;;
4048;Laerm;2038;51.728;6.674;2024-03-06T01:13:19;36.05;26.91;39.58;;
4048;Laerm;2038;51.728;6.674;2024-03-06T01:15:46;36.05;23.90;39.34;;
4048;Laerm;2038;51.728;6.674;2024-03-06T01:18:12;36.07;23.90;40.33;;
4048;Laerm;2038;51.728;6.674;2024-03-06T01:20:39;36.05;28.67;39.68;;
4048;Laerm;2038;51.728;6.674;2024-03-06T01:23:06;36.09;23.90;39.34;;
4048;Laerm;2038;51.728;6.674;2024-03-06T01:25:33;36.08;23.90;39.58;;
4048;Laerm;2038;51.728;6.674;2024-03-06T01:27:59;36.08;28.32;39.34;;
4048;Laerm;2038;51.728;6.674;2024-03-06T01:30:25;36.07;28.67;39.34;;
4048;Laerm;2038;51.728;6.674;2024-03-06T01:32:51;36.14;26.91;39.58;;
4048;Laerm;2038;51.728;6.674;2024-03-06T01:35:18;36.07;23.90;39.08;;
4048;Laerm;2038;51.728;6.674;2024-03-06T01:37:44;36.08;26.91;39.58;;
4048;Laerm;2038;51.728;6.674;2024-03-06T01:40:11;36.06;23.90;39.46;;
4048;Laerm;2038;51.728;6.674;2024-03-06T01:42:38;36.06;23.90;39.21;;
4048;Laerm;2038;51.728;6.674;2024-03-06T01:45:05;36.14;28.67;39.92;;
4048;Laerm;2038;51.728;6.674;2024-03-06T01:47:31;36.09;23.90;39.46;;
4048;Laerm;2038;51.728;6.674;2024-03-06T01:49:58;36.07;26.91;39.34;;
4048;Laerm;2038;51.728;6.674;2024-03-06T01:52:24;36.11;23.90;39.58;;
4048;Laerm;2038;51.728;6.674;2024-03-06T01:54:51;36.11;5.00;39.34;;
4048;Laerm;2038;51.728;6.674;2024-03-06T01:57:19;36.05;26.91;39.46;;
4048;Laerm;2038;51.728;6.674;2024-03-06T01:59:46;36.12;28.67;39.34;;
4048;Laerm;2038;51.728;6.674;2024-03-06T02:02:13;36.13;26.91;39.46;;
4048;Laerm;2038;51.728;6.674;2024-03-06T02:04:40;36.09;28.67;39.21;;
4048;Laerm;2038;51.728;6.674;2024-03-06T02:07:09;36.11;26.91;39.46;;
4048;Laerm;2038;51.728;6.674;2024-03-06T02:09:39;36.15;26.91;39.46;;
4048;Laerm;2038;51.728;6.674;2024-03-06T02:12:07;36.14;26.91;39.81;;
4048;Laerm;2038;51.728;6.674;2024-03-06T02:14:37;36.13;26.91;39.58;;
4048;Laerm;2038;51.728;6.674;2024-03-06T02:17:04;36.18;23.90;39.58;;
4048;Laerm;2038;51.728;6.674;2024-03-06T02:19:41;36.17;28.67;39.58;;
4048;Laerm;2038;51.728;6.674;2024-03-06T02:22:08;36.15;26.91;39.46;;
4048;Laerm;2038;51.728;6.674;2024-03-06T02:24:36;36.17;23.90;39.34;;
4048;Laerm;2038;51.728;6.674;2024-03-06T02:27:03;36.14;23.90;39.21;;
4048;Laerm;2038;51.728;6.674;2024-03-06T02:29:32;36.13;26.91;39.58;;
4048;Laerm;2038;51.728;6.674;2024-03-06T02:32:01;36.13;26.91;39.46;;
4048;Laerm;2038;51.728;6.674;2024-03-06T02:34:28;36.15;26.91;39.81;;
4048;Laerm;2038;51.728;6.674;2024-03-06T02:36:56;36.13;23.90;39.58;;
4048;Laerm;2038;51.728;6.674;2024-03-06T02:39:23;36.15;26.91;39.21;;
4048;Laerm;2038;51.728;6.674;2024-03-06T02:41:49;36.17;23.90;39.58;;
4048;Laerm;2038;51.728;6.674;2024-03-06T02:44:15;36.17;26.91;39.34;;
4048;Laerm;2038;51.728;6.674;2024-03-06T02:46:48;36.19;23.90;39.92;;
4048;Laerm;2038;51.728;6.674;2024-03-06T02:49:18;36.20;26.91;39.21;;
4048;Laerm;2038;51.728;6.674;2024-03-06T02:51:44;36.16;26.91;39.58;;
4048;Laerm;2038;51.728;6.674;2024-03-06T02:54:11;36.17;23.90;39.34;;
4048;Laerm;2038;51.728;6.674;2024-03-06T02:56:37;36.17;26.91;39.46;;
4048;Laerm;2038;51.728;6.674;2024-03-06T02:59:03;36.17;26.91;39.21;;
4048;Laerm;2038;51.728;6.674;2024-03-06T03:01:30;36.18;5.00;39.34;;
4048;Laerm;2038;51.728;6.674;2024-03-06T03:03:57;36.20;23.90;39.58;;
4048;Laerm;2038;51.728;6.674;2024-03-06T03:06:23;36.17;28.67;39.34;;
4048;Laerm;2038;51.728;6.674;2024-03-06T03:08:52;36.19;26.91;39.46;;
4048;Laerm;2038;51.728;6.674;2024-03-06T03:11:19;36.20;23.90;39.46;;
4048;Laerm;2038;51.728;6.674;2024-03-06T03:13:45;36.17;26.91;39.46;;
4048;Laerm;2038;51.728;6.674;2024-03-06T03:16:19;36.19;23.90;39.34;;
4048;Laerm;2038;51.728;6.674;2024-03-06T03:18:47;36.20;23.90;39.81;;
4048;Laerm;2038;51.728;6.674;2024-03-06T03:21:14;36.20;28.67;39.46;;
4048;Laerm;2038;51.728;6.674;2024-03-06T03:23:41;36.25;26.91;39.70;;
4048;Laerm;2038;51.728;6.674;2024-03-06T03:26:08;36.24;28.67;39.21;;
4048;Laerm;2038;51.728;6.674;2024-03-06T03:28:38;36.25;26.91;39.21;;
4048;Laerm;2038;51.728;6.674;2024-03-06T03:31:08;36.25;23.90;39.34;;
4048;Laerm;2038;51.728;6.674;2024-03-06T03:33:41;36.22;23.90;39.70;;
4048;Laerm;2038;51.728;6.674;2024-03-06T03:36:09;36.23;5.00;39.21;;
4048;Laerm;2038;51.728;6.674;2024-03-06T03:38:37;36.26;23.90;39.58;;
4048;Laerm;2038;51.728;6.674;2024-03-06T03:41:11;36.23;26.56;39.58;;
4048;Laerm;2038;51.728;6.674;2024-03-06T03:43:41;36.23;26.56;39.34;;
4048;Laerm;2038;51.728;6.674;2024-03-06T03:46:08;36.32;5.00;39.21;;
4048;Laerm;2038;51.728;6.674;2024-03-06T03:48:35;36.30;23.90;39.34;;
4048;Laerm;2038;51.728;6.674;2024-03-06T03:51:03;36.27;23.90;39.58;;
4048;Laerm;2038;51.728;6.674;2024-03-06T03:53:31;36.23;23.90;39.46;;
4048;Laerm;2038;51.728;6.674;2024-03-06T03:55:57;36.29;26.56;39.46;;
4048;Laerm;2038;51.728;6.674;2024-03-06T03:58:23;36.31;26.91;39.81;;
4048;Laerm;2038;51.728;6.674;2024-03-06T04:00:50;36.33;26.91;39.34;;
4048;Laerm;2038;51.728;6.674;2024-03-06T04:03:19;36.32;28.32;39.81;;
4048;Laerm;2038;51.728;6.674;2024-03-06T04:05:48;36.29;5.00;39.70;;
4048;Laerm;2038;51.728;6.674;2024-03-06T04:08:14;36.29;26.91;39.34;;
4048;Laerm;2038;51.728;6.674;2024-03-06T04:10:43;36.30;26.91;39.92;;
4048;Laerm;2038;51.728;6.674;2024-03-06T04:13:12;36.33;26.56;39.58;;
4048;Laerm;2038;51.728;6.674;2024-03-06T04:15:39;36.32;23.90;39.58;;
4048;Laerm;2038;51.728;6.674;2024-03-06T04:18:05;36.34;26.91;39.21;;
4048;Laerm;2038;51.728;6.674;2024-03-06T04:20:31;36.34;23.90;39.81;;
4048;Laerm;2038;51.728;6.674;2024-03-06T04:22:58;36.33;26.91;39.34;;
4048;Laerm;2038;51.728;6.674;2024-03-06T04:25:24;36.35;23.90;39.21;;
4048;Laerm;2038;51.728;6.674;2024-03-06T04:27:50;36.34;28.67;39.70;;
4048;Laerm;2038;51.728;6.674;2024-03-06T04:30:17;36.39;26.91;39.46;;
4048;Laerm;2038;51.728;6.674;2024-03-06T04:32:43;36.35;26.91;39.78;;
4048;Laerm;2038;51.728;6.674;2024-03-06T04:35:10;36.35;28.67;39.46;;
4048;Laerm;2038;51.728;6.674;2024-03-06T04:37:37;36.38;26.91;39.70;;
4048;Laerm;2038;51.728;6.674;2024-03-06T04:40:05;36.40;26.91;39.46;;
4048;Laerm;2038;51.728;6.674;2024-03-06T04:42:37;36.41;28.67;39.46;;
4048;Laerm;2038;51.728;6.674;2024-03-06T04:45:11;36.41;26.91;39.34;;
4048;Laerm;2038;51.728;6.674;2024-03-06T04:47:41;36.41;28.67;39.46;;
4048;Laerm;2038;51.728;6.674;2024-03-06T04:50:12;36.40;26.91;39.81;;
4048;Laerm;2038;51.728;6.674;2024-03-06T04:52:40;36.41;28.32;39.58;;
4048;Laerm;2038;51.728;6.674;2024-03-06T04:55:08;36.39;26.91;39.46;;
4048;Laerm;2038;51.728;6.674;2024-03-06T04:57:39;36.36;26.91;39.58;;
4048;Laerm;2038;51.728;6.674;2024-03-06T05:00:07;36.41;26.91;39.34;;
4048;Laerm;2038;51.728;6.674;2024-03-06T05:02:34;36.34;26.91;39.70;;
4048;Laerm;2038;51.728;6.674;2024-03-06T05:05:04;36.37;5.00;39.34;;
4048;Laerm;2038;51.728;6.674;2024-03-06T05:07:33;36.36;26.91;39.70;;
4048;Laerm;2038;51.728;6.674;2024-03-06T05:10:00;36.33;26.91;39.34;;
4048;Laerm;2038;51.728;6.674;2024-03-06T05:12:27;36.35;28.32;39.46;;
4048;Laerm;2038;51.728;6.674;2024-03-06T05:14:55;36.33;5.00;39.21;;
4048;Laerm;2038;51.728;6.674;2024-03-06T05:17:22;36.34;26.91;39.34;;
4048;Laerm;2038;51.728;6.674;2024-03-06T05:19:49;36.31;26.91;39.21;;
4048;Laerm;2038;51.728;6.674;2024-03-06T05:22:16;36.29;5.00;39.21;;
4048;Laerm;2038;51.728;6.674;2024-03-06T05:24:43;36.28;26.91;39.81;;
4048;Laerm;2038;51.728;6.674;2024-03-06T05:27:10;36.29;28.67;39.46;;
4048;Laerm;2038;51.728;6.674;2024-03-06T05:29:39;36.32;23.90;39.58;;
4048;Laerm;2038;51.728;6.674;2024-03-06T05:32:06;36.31;5.00;39.21;;
4048;Laerm;2038;51.728;6.674;2024-03-06T05:34:34;36.31;26.91;39.34;;
4048;Laerm;2038;51.728;6.674;2024-03-06T05:37:01;36.33;23.90;39.58;;
4048;Laerm;2038;51.728;6.674;2024-03-06T05:39:30;36.28;26.91;39.81;;
4048;Laerm;2038;51.728;6.674;2024-03-06T05:42:01;36.27;26.91;39.58;;
4048;Laerm;2038;51.728;6.674;2024-03-06T05:44:31;36.30;26.91;39.21;;
4048;Laerm;2038;51.728;6.674;2024-03-06T05:47:02;36.32;23.90;39.23;;
4048;Laerm;2038;51.728;6.674;2024-03-06T05:49:29;36.29;26.91;39.78;;
4048;Laerm;2038;51.728;6.674;2024-03-06T05:51:56;36.29;26.91;39.34;;
4048;Laerm;2038;51.728;6.674;2024-03-06T05:54:22;36.36;28.67;39.21;;
4048;Laerm;2038;51.728;6.674;2024-03-06T05:56:50;36.31;26.91;39.35;;
4048;Laerm;2038;51.728;6.674;2024-03-06T05:59:20;36.27;26.91;39.34;;
4048;Laerm;2038;51.728;6.674;2024-03-06T06:01:46;36.29;5.00;39.21;;
4048;Laerm;2038;51.728;6.674;2024-03-06T06:04:13;36.32;5.00;39.70;;
4048;Laerm;2038;51.728;6.674;2024-03-06T06:06:40;36.32;26.91;39.21;;
4048;Laerm;2038;51.728;6.674;2024-03-06T06:09:07;36.38;26.56;39.58;;
4048;Laerm;2038;51.728;6.674;2024-03-06T06:11:38;36.42;23.90;39.34;;
4048;Laerm;2038;51.728;6.674;2024-03-06T06:14:05;36.34;23.90;39.70;;
4048;Laerm;2038;51.728;6.674;2024-03-06T06:16:37;36.39;23.90;39.46;;
4048;Laerm;2038;51.728;6.674;2024-03-06T06:19:03;36.45;28.67;39.70;;
4048;Laerm;2038;51.728;6.674;2024-03-06T06:21:30;36.45;28.32;39.58;;
4048;Laerm;2038;51.728;6.674;2024-03-06T06:23:56;36.44;26.91;39.46;;
4048;Laerm;2038;51.728;6.674;2024-03-06T06:26:23;36.41;26.91;39.58;;
4048;Laerm;2038;51.728;6.674;2024-03-06T06:28:49;36.43;26.91;39.58;;
4048;Laerm;2038;51.728;6.674;2024-03-06T06:31:15;36.44;23.90;39.58;;
4048;Laerm;2038;51.728;6.674;2024-03-06T06:33:42;36.42;23.90;39.70;;
4048;Laerm;2038;51.728;6.674;2024-03-06T06:36:08;36.46;28.67;39.21;;
4048;Laerm;2038;51.728;6.674;2024-03-06T06:38:35;36.46;26.91;39.58;;
4048;Laerm;2038;51.728;6.674;2024-03-06T06:41:01;36.45;26.91;39.46;;
4048;Laerm;2038;51.728;6.674;2024-03-06T06:43:28;36.45;23.90;39.34;;
4048;Laerm;2038;51.728;6.674;2024-03-06T06:45:55;36.43;23.90;39.21;;
4048;Laerm;2038;51.728;6.674;2024-03-06T06:48:21;36.47;26.91;39.34;;
4048;Laerm;2038;51.728;6.674;2024-03-06T06:50:47;36.44;28.67;39.34;;
4048;Laerm;2038;51.728;6.674;2024-03-06T06:53:14;36.41;26.91;39.46;;
4048;Laerm;2038;51.728;6.674;2024-03-06T06:55:40;36.39;26.91;39.70;;
4048;Laerm;2038;51.728;6.674;2024-03-06T06:58:06;36.40;28.67;39.46;;
4048;Laerm;2038;51.728;6.674;2024-03-06T07:00:33;36.40;26.91;39.46;;
4048;Laerm;2038;51.728;6.674;2024-03-06T07:03:00;36.44;23.90;39.46;;
4048;Laerm;2038;51.728;6.674;2024-03-06T07:05:26;36.44;26.91;39.81;;
4048;Laerm;2038;51.728;6.674;2024-03-06T07:07:52;36.44;26.91;39.46;;
4048;Laerm;2038;51.728;6.674;2024-03-06T07:10:19;36.43;26.91;39.46;;
4048;Laerm;2038;51.728;6.674;2024-03-06T07:12:45;36.43;28.67;39.34;;
4048;Laerm;2038;51.728;6.674;2024-03-06T07:15:12;36.44;26.91;39.08;;
4048;Laerm;2038;51.728;6.674;2024-03-06T07:17:38;36.41;28.67;39.58;;
4048;Laerm;2038;51.728;6.674;2024-03-06T07:20:05;36.44;23.90;39.34;;
4048;Laerm;2038;51.728;6.674;2024-03-06T07:22:32;36.41;26.91;39.58;;
4048;Laerm;2038;51.728;6.674;2024-03-06T07:25:00;36.44;26.91;39.34;;
4048;Laerm;2038;51.728;6.674;2024-03-06T07:27:28;36.40;5.00;39.21;;
4048;Laerm;2038;51.728;6.674;2024-03-06T07:29:54;36.39;23.90;39.58;;
4048;Laerm;2038;51.728;6.674;2024-03-06T07:32:20;36.41;23.90;39.46;;
4048;Laerm;2038;51.728;6.674;2024-03-06T07:34:47;36.46;5.00;39.58;;
4048;Laerm;2038;51.728;6.674;2024-03-06T07:37:13;36.39;28.67;39.81;;
4048;Laerm;2038;51.728;6.674;2024-03-06T07:39:40;36.36;28.67;39.34;;
4048;Laerm;2038;51.728;6.674;2024-03-06T07:42:07;36.34;26.91;39.34;;
4048;Laerm;2038;51.728;6.674;2024-03-06T07:44:33;36.37;23.90;39.34;;
4048;Laerm;2038;51.728;6.674;2024-03-06T07:47:01;36.37;23.90;39.58;;
4048;Laerm;2038;51.728;6.674;2024-03-06T07:49:27;36.32;26.91;39.46;;
4048;Laerm;2038;51.728;6.674;2024-03-06T07:51:54;36.30;28.67;39.46;;
4048;Laerm;2038;51.728;6.674;2024-03-06T07:54:20;36.32;28.67;39.21;;
4048;Laerm;2038;51.728;6.674;2024-03-06T07:56:47;36.29;26.91;39.34;;
4048;Laerm;2038;51.728;6.674;2024-03-06T07:59:14;36.30;26.91;39.58;;
4048;Laerm;2038;51.728;6.674;2024-03-06T08:01:41;36.30;26.91;39.21;;
4048;Laerm;2038;51.728;6.674;2024-03-06T08:04:07;36.31;28.67;39.58;;
4048;Laerm;2038;51.728;6.674;2024-03-06T08:06:34;36.27;26.91;39.46;;
4048;Laerm;2038;51.728;6.674;2024-03-06T08:09:03;36.32;5.00;39.46;;
4048;Laerm;2038;51.728;6.674;2024-03-06T08:11:29;36.29;26.91;39.46;;
4048;Laerm;2038;51.728;6.674;2024-03-06T08:14:00;36.32;28.67;39.35;;
4048;Laerm;2038;51.728;6.674;2024-03-06T08:16:28;36.27;26.56;39.70;;
4048;Laerm;2038;51.728;6.674;2024-03-06T08:18:56;36.29;26.91;39.21;;
4048;Laerm;2038;51.728;6.674;2024-03-06T08:21:24;36.27;23.90;39.46;;
4048;Laerm;2038;51.728;6.674;2024-03-06T08:23:50;36.24;5.00;39.21;;
4048;Laerm;2038;51.728;6.674;2024-03-06T08:26:18;36.24;26.91;39.21;;
4048;Laerm;2038;51.728;6.674;2024-03-06T08:28:44;36.23;23.90;39.34;;
4048;Laerm;2038;51.728;6.674;2024-03-06T08:31:10;36.27;26.91;39.58;;
4048;Laerm;2038;51.728;6.674;2024-03-06T08:33:37;36.26;28.67;39.21;;
4048;Laerm;2038;51.728;6.674;2024-03-06T08:36:03;36.28;23.90;39.70;;
4048;Laerm;2038;51.728;6.674;2024-03-06T08:38:30;36.27;26.91;39.46;;
4048;Laerm;2038;51.728;6.674;2024-03-06T08:40:56;36.23;28.67;39.58;;
4048;Laerm;2038;51.728;6.674;2024-03-06T08:43:22;36.33;26.91;39.81;;
4048;Laerm;2038;51.728;6.674;2024-03-06T08:45:49;36.27;26.91;39.46;;
4048;Laerm;2038;51.728;6.674;2024-03-06T08:48:15;36.25;28.67;39.70;;
4048;Laerm;2038;51.728;6.674;2024-03-06T08:50:41;36.28;26.91;39.81;;
4048;Laerm;2038;51.728;6.674;2024-03-06T08:53:07;36.29;28.67;39.81;;
4048;Laerm;2038;51.728;6.674;2024-03-06T08:55:36;36.27;26.56;39.46;;
4048;Laerm;2038;51.728;6.674;2024-03-06T08:58:03;36.22;26.91;39.08;;
4048;Laerm;2038;51.728;6.674;2024-03-06T09:00:29;36.25;28.67;39.70;;
4048;Laerm;2038;51.728;6.674;2024-03-06T09:02:55;36.22;26.91;39.46;;
4048;Laerm;2038;51.728;6.674;2024-03-06T09:05:21;36.20;23.90;39.58;;
4048;Laerm;2038;51.728;6.674;2024-03-06T09:07:48;36.21;28.67;39.46;;
4048;Laerm;2038;51.728;6.674;2024-03-06T09:10:14;36.29;28.67;39.58;;
4048;Laerm;2038;51.728;6.674;2024-03-06T09:12:40;36.26;26.91;39.46;;
4048;Laerm;2038;51.728;6.674;2024-03-06T09:15:07;36.23;26.91;39.34;;
4048;Laerm;2038;51.728;6.674;2024-03-06T09:17:34;36.17;28.67;39.46;;
4048;Laerm;2038;51.728;6.674;2024-03-06T09:20:01;36.23;23.90;39.46;;
4048;Laerm;2038;51.728;6.674;2024-03-06T09:22:39;36.21;26.91;39.58;;
4048;Laerm;2038;51.728;6.674;2024-03-06T09:25:06;36.21;26.91;39.08;;
4048;Laerm;2038;51.728;6.674;2024-03-06T09:27:33;36.21;5.00;39.58;;
4048;Laerm;2038;51.728;6.674;2024-03-06T09:29:59;36.21;26.91;40.43;;
4048;Laerm;2038;51.728;6.674;2024-03-06T09:32:26;36.21;5.00;39.46;;
4048;Laerm;2038;51.728;6.674;2024-03-06T09:34:52;36.19;26.91;39.70;;
4048;Laerm;2038;51.728;6.674;2024-03-06T09:37:19;36.23;26.91;39.46;;
4048;Laerm;2038;51.728;6.674;2024-03-06T09:39:46;36.22;26.91;39.70;;
4048;Laerm;2038;51.728;6.674;2024-03-06T09:42:18;36.24;26.91;39.81;;
4048;Laerm;2038;51.728;6.674;2024-03-06T09:44:44;36.21;26.91;39.46;;
4048;Laerm;2038;51.728;6.674;2024-03-06T09:47:13;36.20;23.90;39.34;;
4048;Laerm;2038;51.728;6.674;2024-03-06T09:49:41;36.22;23.90;39.58;;
4048;Laerm;2038;51.728;6.674;2024-03-06T09:52:08;36.20;26.91;39.46;;
4048;Laerm;2038;51.728;6.674;2024-03-06T09:54:34;36.18;26.91;39.58;;
4048;Laerm;2038;51.728;6.674;2024-03-06T09:57:00;36.21;23.90;39.70;;
4048;Laerm;2038;51.728;6.674;2024-03-06T09:59:28;36.18;23.90;39.58;;
4048;Laerm;2038;51.728;6.674;2024-03-06T10:01:56;36.26;26.91;39.34;;
4048;Laerm;2038;51.728;6.674;2024-03-06T10:04:28;36.21;26.91;39.34;;
4048;Laerm;2038;51.728;6.674;2024-03-06T10:06:59;36.19;28.67;39.58;;
4048;Laerm;2038;51.728;6.674;2024-03-06T10:09:27;36.23;28.67;39.21;;
4048;Laerm;2038;51.728;6.674;2024-03-06T10:11:54;36.21;26.91;39.34;;
4048;Laerm;2038;51.728;6.674;2024-03-06T10:14:22;36.22;26.91;39.46;;
4048;Laerm;2038;51.728;6.674;2024-03-06T10:17:00;36.23;26.91;39.58;;
4048;Laerm;2038;51.728;6.674;2024-03-06T10:19:29;36.20;26.91;39.46;;
4048;Laerm;2038;51.728;6.674;2024-03-06T10:21:56;36.18;26.91;39.46;;
4048;Laerm;2038;51.728;6.674;2024-03-06T10:24:26;36.20;28.67;39.58;;
4048;Laerm;2038;51.728;6.674;2024-03-06T10:26:56;36.17;26.91;39.58;;
4048;Laerm;2038;51.728;6.674;2024-03-06T10:29:29;36.19;23.90;39.34;;
4048;Laerm;2038;51.728;6.674;2024-03-06T10:31:58;36.13;26.91;39.58;;
4048;Laerm;2038;51.728;6.674;2024-03-06T10:34:27;36.16;23.90;39.58;;
4048;Laerm;2038;51.728;6.674;2024-03-06T10:37:03;36.11;26.91;39.46;;
4048;Laerm;2038;51.728;6.674;2024-03-06T10:39:40;36.08;26.91;39.46;;
4048;Laerm;2038;51.728;6.674;2024-03-06T10:42:09;36.14;26.91;39.58;;
4048;Laerm;2038;51.728;6.674;2024-03-06T10:44:51;36.13;26.91;39.46;;
4048;Laerm;2038;51.728;6.674;2024-03-06T10:47:19;36.09;26.91;39.58;;
4048;Laerm;2038;51.728;6.674;2024-03-06T10:49:47;36.11;23.90;39.81;;
4048;Laerm;2038;51.728;6.674;2024-03-06T10:52:15;36.13;26.91;39.46;;
4048;Laerm;2038;51.728;6.674;2024-03-06T10:54:46;36.13;26.91;39.70;;
4048;Laerm;2038;51.728;6.674;2024-03-06T10:57:14;36.16;26.91;39.34;;
4048;Laerm;2038;51.728;6.674;2024-03-06T10:59:42;36.16;23.90;39.46;;
4048;Laerm;2038;51.728;6.674;2024-03-06T11:02:09;36.14;23.90;39.46;;
4048;Laerm;2038;51.728;6.674;2024-03-06T11:04:37;36.14;26.91;39.92;;
4048;Laerm;2038;51.728;6.674;2024-03-06T11:07:06;36.17;26.91;39.34;;
4048;Laerm;2038;51.728;6.674;2024-03-06T11:09:37;36.18;23.90;39.58;;
4048;Laerm;2038;51.728;6.674;2024-03-06T11:12:05;36.18;28.67;39.46;;
4048;Laerm;2038;51.728;6.674;2024-03-06T11:14:36;36.17;26.91;39.58;;
4048;Laerm;2038;51.728;6.674;2024-03-06T11:17:09;36.16;23.90;39.58;;
4048;Laerm;2038;51.728;6.674;2024-03-06T11:28:17;36.08;26.56;39.34;;
4048;Laerm;2038;51.728;6.674;2024-03-06T11:33:20;36.10;26.91;39.34;;
4048;Laerm;2038;51.728;6.674;2024-03-06T11:36:24;36.14;28.67;39.46;;
4048;Laerm;2038;51.728;6.674;2024-03-06T11:39:06;36.13;26.91;39.58;;
4048;Laerm;2038;51.728;6.674;2024-03-06T11:44:21;36.15;26.56;39.34;;
4048;Laerm;2038;51.728;6.674;2024-03-06T11:46:58;36.13;28.67;39.70;;
4048;Laerm;2038;51.728;6.674;2024-03-06T11:49:28;36.14;26.91;39.70;;
4048;Laerm;2038;51.728;6.674;2024-03-06T11:52:08;36.14;26.91;40.03;;
4048;Laerm;2038;51.728;6.674;2024-03-06T11:54:35;36.18;23.90;39.46;;
4048;Laerm;2038;51.728;6.674;2024-03-06T11:57:04;36.18;23.90;39.58;;
4048;Laerm;2038;51.728;6.674;2024-03-06T11:59:36;36.17;26.91;39.92;;
4048;Laerm;2038;51.728;6.674;2024-03-06T12:02:05;36.20;26.91;39.70;;
4048;Laerm;2038;51.728;6.674;2024-03-06T12:04:34;36.29;26.91;39.70;;
4048;Laerm;2038;51.728;6.674;2024-03-06T12:07:02;36.31;28.67;39.34;;
4048;Laerm;2038;51.728;6.674;2024-03-06T12:09:34;36.31;28.67;39.58;;
4048;Laerm;2038;51.728;6.674;2024-03-06T12:12:00;36.30;26.91;40.33;;
4048;Laerm;2038;51.728;6.674;2024-03-06T12:14:26;36.36;26.91;39.58;;
4048;Laerm;2038;51.728;6.674;2024-03-06T12:17:00;36.36;23.90;39.46;;
4048;Laerm;2038;51.728;6.674;2024-03-06T12:19:34;36.33;26.91;39.70;;
4048;Laerm;2038;51.728;6.674;2024-03-06T12:22:01;36.32;28.67;39.58;;
4048;Laerm;2038;51.728;6.674;2024-03-06T12:24:29;36.27;29.92;39.70;;
4048;Laerm;2038;51.728;6.674;2024-03-06T12:27:03;36.29;26.91;39.81;;
4048;Laerm;2038;51.728;6.674;2024-03-06T12:29:32;36.27;29.57;39.34;;
4048;Laerm;2038;51.728;6.674;2024-03-06T12:31:59;36.30;26.91;39.58;;
4048;Laerm;2038;51.728;6.674;2024-03-06T12:34:26;36.31;26.91;39.58;;
4048;Laerm;2038;51.728;6.674;2024-03-06T12:36:53;36.31;28.67;39.81;;
4048;Laerm;2038;51.728;6.674;2024-03-06T12:39:19;36.29;28.67;39.46;;
4048;Laerm;2038;51.728;6.674;2024-03-06T12:41:52;36.28;26.91;39.58;;
4048;Laerm;2038;51.728;6.674;2024-03-06T12:44:22;36.28;28.67;39.46;;
4048;Laerm;2038;51.728;6.674;2024-03-06T12:46:48;36.22;26.91;39.58;;
4048;Laerm;2038;51.728;6.674;2024-03-06T12:49:15;36.32;28.67;39.58;;
4048;Laerm;2038;51.728;6.674;2024-03-06T12:51:41;36.25;28.67;39.81;;
4048;Laerm;2038;51.728;6.674;2024-03-06T12:54:08;36.23;26.91;39.81;;
4048;Laerm;2038;51.728;6.674;2024-03-06T12:56:34;36.24;28.67;39.58;;
4048;Laerm;2038;51.728;6.674;2024-03-06T12:59:01;36.23;26.91;39.81;;
4048;Laerm;2038;51.728;6.674;2024-03-06T13:01:27;36.25;26.91;39.58;;
4048;Laerm;2038;51.728;6.674;2024-03-06T13:03:53;36.24;23.90;39.81;;
4048;Laerm;2038;51.728;6.674;2024-03-06T13:06:20;36.22;23.90;39.92;;
4048;Laerm;2038;51.728;6.674;2024-03-06T13:08:47;36.25;28.67;39.81;;
4048;Laerm;2038;51.728;6.674;2024-03-06T13:11:14;36.19;28.67;39.92;;
4048;Laerm;2038;51.728;6.674;2024-03-06T13:13:40;36.24;26.91;39.92;;
4048;Laerm;2038;51.728;6.674;2024-03-06T13:16:06;36.20;28.67;39.34;;
4048;Laerm;2038;51.728;6.674;2024-03-06T13:18:33;36.20;28.67;39.46;;
4048;Laerm;2038;51.728;6.674;2024-03-06T13:20:59;36.19;26.91;39.68;;
4048;Laerm;2038;51.728;6.674;2024-03-06T13:23:26;36.22;23.90;39.34;;
4048;Laerm;2038;51.728;6.674;2024-03-06T13:25:53;36.19;26.91;39.34;;
4048;Laerm;2038;51.728;6.674;2024-03-06T13:28:19;36.14;28.67;39.58;;
4048;Laerm;2038;51.728;6.674;2024-03-06T13:30:47;36.16;23.90;39.81;;
4048;Laerm;2038;51.728;6.674;2024-03-06T13:33:13;36.15;28.67;39.34;;
4048;Laerm;2038;51.728;6.674;2024-03-06T13:35:39;36.15;28.67;39.70;;
4048;Laerm;2038;51.728;6.674;2024-03-06T13:38:06;36.15;28.67;39.46;;
4048;Laerm;2038;51.728;6.674;2024-03-06T13:40:32;36.17;26.91;39.46;;
4048;Laerm;2038;51.728;6.674;2024-03-06T13:42:58;36.17;28.67;39.46;;
4048;Laerm;2038;51.728;6.674;2024-03-06T13:45:24;36.18;26.91;39.92;;
4048;Laerm;2038;51.728;6.674;2024-03-06T13:47:51;36.24;26.91;39.92;;
4048;Laerm;2038;51.728;6.674;2024-03-06T13:50:19;36.24;26.91;39.46;;
4048;Laerm;2038;51.728;6.674;2024-03-06T13:52:45;36.19;26.91;39.70;;
4048;Laerm;2038;51.728;6.674;2024-03-06T13:55:11;36.24;28.67;39.58;;
4048;Laerm;2038;51.728;6.674;2024-03-06T13:57:39;36.25;23.90;39.34;;
4048;Laerm;2038;51.728;6.674;2024-03-06T14:00:08;36.25;26.91;39.46;;
4048;Laerm;2038;51.728;6.674;2024-03-06T14:02:44;36.29;26.91;39.70;;
4048;Laerm;2038;51.728;6.674;2024-03-06T14:05:14;36.26;28.32;40.03;;
4048;Laerm;2038;51.728;6.674;2024-03-06T14:07:43;36.30;26.91;39.46;;
4048;Laerm;2038;51.728;6.674;2024-03-06T14:10:10;36.27;28.67;39.70;;
4048;Laerm;2038;51.728;6.674;2024-03-06T14:12:38;36.27;26.91;39.58;;
4048;Laerm;2038;51.728;6.674;2024-03-06T14:15:06;36.30;26.91;39.81;;
4048;Laerm;2038;51.728;6.674;2024-03-06T14:17:38;36.24;29.92;39.58;;
4048;Laerm;2038;51.728;6.674;2024-03-06T14:20:05;36.24;28.67;39.35;;
4048;Laerm;2038;51.728;6.674;2024-03-06T14:22:32;36.28;28.67;39.70;;
4048;Laerm;2038;51.728;6.674;2024-03-06T14:24:58;36.24;28.67;39.21;;
4048;Laerm;2038;51.728;6.674;2024-03-06T14:27:25;36.23;26.91;39.34;;